sensor_id;sensor_type;location;lat;lon;timestamp;pressure;altitude;pressure_sealevel;temperature;humidity
38780;BME280;29273;49.962;9.768;2023-07-31T00:01:19;99623.94;;;21.66;44.05
38780;BME280;29273;49.962;9.768;2023-07-31T00:03:45;99627.44;;;21.67;43.82
38780;BME280;29273;49.962;9.768;2023-07-31T00:06:11;99625.03;;;21.65;43.83
38780;BME280;29273;49.962;9.768;2023-07-31T00:08:36;99630.69;;;21.64;43.78
38780;BME280;29273;49.962;9.768;2023-07-31T00:11:02;99628.00;;;21.64;43.82
38780;BME280;29273;49.962;9.768;2023-07-31T00:13:27;99630.69;;;21.64;43.94
38780;BME280;29273;49.962;9.768;2023-07-31T00:15:53;99627.47;;;21.61;43.92
38780;BME280;29273;49.962;9.768;2023-07-31T00:18:18;99632.84;;;21.61;44.13
38780;BME280;29273;49.962;9.768;2023-07-31T00:20:44;99628.56;;;21.60;44.00
38780;BME280;29273;49.962;9.768;2023-07-31T00:23:09;99625.06;;;21.60;43.90
38780;BME280;29273;49.962;9.768;2023-07-31T00:25:35;99619.97;;;21.58;44.12
38780;BME280;29273;49.962;9.768;2023-07-31T00:28:00;99615.63;;;21.57;44.06
38780;BME280;29273;49.962;9.768;2023-07-31T00:30:25;99608.91;;;21.55;44.02
38780;BME280;29273;49.962;9.768;2023-07-31T00:32:53;99608.91;;;21.55;44.33
38780;BME280;29273;49.962;9.768;2023-07-31T00:35:18;99614.06;;;21.51;44.66
38780;BME280;29273;49.962;9.768;2023-07-31T00:37:44;99615.16;;;21.50;44.66
38780;BME280;29273;49.962;9.768;2023-07-31T00:40:09;99603.81;;;21.48;44.68
38780;BME280;29273;49.962;9.768;2023-07-31T00:42:35;99601.38;;;21.47;44.73
38780;BME280;29273;49.962;9.768;2023-07-31T00:45:00;99605.97;;;21.46;44.60
38780;BME280;29273;49.962;9.768;2023-07-31T00:47:26;99605.19;;;21.46;44.83
38780;BME280;29273;49.962;9.768;2023-07-31T00:49:52;99604.38;;;21.45;44.81
38780;BME280;29273;49.962;9.768;2023-07-31T00:52:18;99606.25;;;21.44;44.33
38780;BME280;29273;49.962;9.768;2023-07-31T00:54:44;99605.72;;;21.42;44.62
38780;BME280;29273;49.962;9.768;2023-07-31T00:57:10;99611.91;;;21.43;44.62
38780;BME280;29273;49.962;9.768;2023-07-31T00:59:35;99604.94;;;21.42;45.22
38780;BME280;29273;49.962;9.768;2023-07-31T01:02:02;99595.75;;;21.43;44.76
38780;BME280;29273;49.962;9.768;2023-07-31T01:04:28;99601.13;;;21.43;45.11
38780;BME280;29273;49.962;9.768;2023-07-31T01:09:59;99603.31;;;21.41;45.54
38780;BME280;29273;49.962;9.768;2023-07-31T01:12:28;99602.50;;;21.40;45.14
38780;BME280;29273;49.962;9.768;2023-07-31T01:17:31;99583.94;;;21.39;45.41
38780;BME280;29273;49.962;9.768;2023-07-31T01:20:02;99579.59;;;21.43;44.94
38780;BME280;29273;49.962;9.768;2023-07-31T01:28:10;99569.63;;;21.43;44.69
38780;BME280;29273;49.962;9.768;2023-07-31T01:30:43;99566.41;;;21.41;45.00
38780;BME280;29273;49.962;9.768;2023-07-31T01:33:10;99567.25;;;21.37;45.12
38780;BME280;29273;49.962;9.768;2023-07-31T01:35:36;99565.34;;;21.37;45.33
38780;BME280;29273;49.962;9.768;2023-07-31T01:38:03;99552.97;;;21.36;45.22
38780;BME280;29273;49.962;9.768;2023-07-31T01:40:29;99557.28;;;21.37;45.30
38780;BME280;29273;49.962;9.768;2023-07-31T01:42:55;99563.72;;;21.36;45.46
38780;BME280;29273;49.962;9.768;2023-07-31T01:45:20;99557.03;;;21.34;45.26
38780;BME280;29273;49.962;9.768;2023-07-31T01:47:46;99546.25;;;21.34;45.05
38780;BME280;29273;49.962;9.768;2023-07-31T01:50:11;99550.03;;;21.33;45.14
38780;BME280;29273;49.962;9.768;2023-07-31T01:52:37;99552.72;;;21.33;45.51
38780;BME280;29273;49.962;9.768;2023-07-31T01:55:02;99549.22;;;21.32;45.12
38780;BME280;29273;49.962;9.768;2023-07-31T01:57:28;99549.22;;;21.32;44.93
38780;BME280;29273;49.962;9.768;2023-07-31T01:59:53;99554.63;;;21.32;44.68
38780;BME280;29273;49.962;9.768;2023-07-31T02:02:19;99559.22;;;21.32;45.78
38780;BME280;29273;49.962;9.768;2023-07-31T02:04:45;99546.03;;;21.30;45.40
38780;BME280;29273;49.962;9.768;2023-07-31T02:07:10;99551.69;;;21.29;45.66
38780;BME280;29273;49.962;9.768;2023-07-31T02:09:36;99542.78;;;21.28;45.51
38780;BME280;29273;49.962;9.768;2023-07-31T02:12:02;99539.00;;;21.29;46.03
38780;BME280;29273;49.962;9.768;2023-07-31T02:14:27;99530.13;;;21.29;45.00
38780;BME280;29273;49.962;9.768;2023-07-31T02:16:53;99535.53;;;21.29;45.55
38780;BME280;29273;49.962;9.768;2023-07-31T02:19:18;99528.50;;;21.28;45.04
38780;BME280;29273;49.962;9.768;2023-07-31T02:21:43;99533.09;;;21.27;45.61
38780;BME280;29273;49.962;9.768;2023-07-31T02:24:10;99529.59;;;21.26;45.33
38780;BME280;29273;49.962;9.768;2023-07-31T02:26:35;99527.19;;;21.25;45.49
38780;BME280;29273;49.962;9.768;2023-07-31T02:29:02;99529.59;;;21.26;45.73
38780;BME280;29273;49.962;9.768;2023-07-31T02:31:27;99523.41;;;21.26;45.69
38780;BME280;29273;49.962;9.768;2023-07-31T02:33:53;99526.38;;;21.24;45.61
38780;BME280;29273;49.962;9.768;2023-07-31T02:36:18;99523.41;;;21.26;45.49
38780;BME280;29273;49.962;9.768;2023-07-31T02:38:44;99522.34;;;21.27;45.68
38780;BME280;29273;49.962;9.768;2023-07-31T02:41:09;99503.47;;;21.27;46.15
38780;BME280;29273;49.962;9.768;2023-07-31T02:43:35;99498.09;;;21.27;45.81
38780;BME280;29273;49.962;9.768;2023-07-31T02:46:00;99504.28;;;21.28;45.83
38780;BME280;29273;49.962;9.768;2023-07-31T02:48:26;99502.66;;;21.26;45.98
38780;BME280;29273;49.962;9.768;2023-07-31T02:50:51;99508.88;;;21.27;45.99
38780;BME280;29273;49.962;9.768;2023-07-31T02:53:17;99516.94;;;21.27;45.75
38780;BME280;29273;49.962;9.768;2023-07-31T02:55:42;99519.91;;;21.25;46.18
38780;BME280;29273;49.962;9.768;2023-07-31T02:58:08;99513.75;;;21.25;46.21
38780;BME280;29273;49.962;9.768;2023-07-31T03:00:33;99512.91;;;21.24;46.31
38780;BME280;29273;49.962;9.768;2023-07-31T03:02:58;99510.22;;;21.24;46.12
38780;BME280;29273;49.962;9.768;2023-07-31T03:05:24;99507.00;;;21.22;46.12
38780;BME280;29273;49.962;9.768;2023-07-31T03:07:49;99510.50;;;21.23;46.11
38780;BME280;29273;49.962;9.768;2023-07-31T03:10:15;99513.47;;;21.21;46.32
38780;BME280;29273;49.962;9.768;2023-07-31T03:12:40;99518.84;;;21.21;46.56
38780;BME280;29273;49.962;9.768;2023-07-31T03:15:06;99513.47;;;21.21;46.39
38780;BME280;29273;49.962;9.768;2023-07-31T03:17:32;99511.59;;;21.22;46.39
38780;BME280;29273;49.962;9.768;2023-07-31T03:19:58;99507.56;;;21.19;46.59
38780;BME280;29273;49.962;9.768;2023-07-31T03:22:23;99501.38;;;21.19;46.22
38780;BME280;29273;49.962;9.768;2023-07-31T03:24:48;99500.59;;;21.18;46.47
38780;BME280;29273;49.962;9.768;2023-07-31T03:27:14;99498.16;;;21.17;46.49
38780;BME280;29273;49.962;9.768;2023-07-31T03:29:39;99501.66;;;21.17;46.66
38780;BME280;29273;49.962;9.768;2023-07-31T03:32:05;99499.25;;;21.16;46.50
38780;BME280;29273;49.962;9.768;2023-07-31T03:34:31;99503.84;;;21.15;46.58
38780;BME280;29273;49.962;9.768;2023-07-31T03:36:58;99512.69;;;21.16;46.27
38780;BME280;29273;49.962;9.768;2023-07-31T03:39:23;99508.66;;;21.13;46.94
38780;BME280;29273;49.962;9.768;2023-07-31T03:41:49;99503.59;;;21.12;46.87
38780;BME280;29273;49.962;9.768;2023-07-31T03:44:16;99505.47;;;21.11;46.70
38780;BME280;29273;49.962;9.768;2023-07-31T03:46:42;99506.84;;;21.09;46.86
38780;BME280;29273;49.962;9.768;2023-07-31T03:49:07;99507.13;;;21.07;46.80
38780;BME280;29273;49.962;9.768;2023-07-31T03:51:33;99509.81;;;21.07;47.25
38780;BME280;29273;49.962;9.768;2023-07-31T03:54:00;99507.38;;;21.05;47.34
38780;BME280;29273;49.962;9.768;2023-07-31T03:56:26;99509.28;;;21.05;47.34
38780;BME280;29273;49.962;9.768;2023-07-31T03:58:51;99516.00;;;21.02;47.38
38780;BME280;29273;49.962;9.768;2023-07-31T04:01:17;99513.59;;;21.01;47.36
38780;BME280;29273;49.962;9.768;2023-07-31T04:03:43;99514.41;;;21.01;47.44
38780;BME280;29273;49.962;9.768;2023-07-31T04:06:08;99504.72;;;21.00;47.87
38780;BME280;29273;49.962;9.768;2023-07-31T04:08:34;99503.91;;;21.00;47.51
38780;BME280;29273;49.962;9.768;2023-07-31T04:10:59;99499.63;;;20.99;47.69
38780;BME280;29273;49.962;9.768;2023-07-31T04:13:24;99503.09;;;20.99;47.71
38780;BME280;29273;49.962;9.768;2023-07-31T04:15:52;99502.03;;;21.00;47.82
38780;BME280;29273;49.962;9.768;2023-07-31T04:18:19;99509.56;;;21.03;47.45
38780;BME280;29273;49.962;9.768;2023-07-31T04:20:45;99508.47;;;21.04;47.42
38780;BME280;29273;49.962;9.768;2023-07-31T04:23:11;99496.91;;;21.04;47.33
38780;BME280;29273;49.962;9.768;2023-07-31T04:25:36;99503.91;;;21.05;47.53
38780;BME280;29273;49.962;9.768;2023-07-31T04:28:02;99505.50;;;21.06;47.31
38780;BME280;29273;49.962;9.768;2023-07-31T04:30:27;99508.97;;;21.06;47.53
38780;BME280;29273;49.962;9.768;2023-07-31T04:32:53;99502.00;;;21.05;47.41
38780;BME280;29273;49.962;9.768;2023-07-31T04:35:18;99509.53;;;21.09;47.40
38780;BME280;29273;49.962;9.768;2023-07-31T04:37:44;99517.59;;;21.09;47.30
38780;BME280;29273;49.962;9.768;2023-07-31T04:40:11;99513.53;;;21.11;47.33
38780;BME280;29273;49.962;9.768;2023-07-31T04:42:37;99519.75;;;21.12;47.53
38780;BME280;29273;49.962;9.768;2023-07-31T04:45:02;99506.81;;;21.14;47.63
38780;BME280;29273;49.962;9.768;2023-07-31T04:47:28;99510.28;;;21.14;47.73
38780;BME280;29273;49.962;9.768;2023-07-31T04:49:53;99508.13;;;21.16;47.51
38780;BME280;29273;49.962;9.768;2023-07-31T04:52:19;99507.03;;;21.17;47.69
38780;BME280;29273;49.962;9.768;2023-07-31T04:54:44;99511.34;;;21.18;47.80
38780;BME280;29273;49.962;9.768;2023-07-31T04:57:10;99512.66;;;21.21;47.86
38780;BME280;29273;49.962;9.768;2023-07-31T04:59:36;99516.97;;;21.22;47.80
38780;BME280;29273;49.962;9.768;2023-07-31T05:02:02;99516.72;;;21.23;47.34
38780;BME280;29273;49.962;9.768;2023-07-31T05:04:27;99501.63;;;21.22;47.29
38780;BME280;29273;49.962;9.768;2023-07-31T05:06:53;99509.41;;;21.24;47.06
38780;BME280;29273;49.962;9.768;2023-07-31T05:09:18;99507.53;;;21.24;47.29
38780;BME280;29273;49.962;9.768;2023-07-31T05:11:44;99505.66;;;21.25;47.13
38780;BME280;29273;49.962;9.768;2023-07-31T05:14:09;99502.97;;;21.25;47.71
38780;BME280;29273;49.962;9.768;2023-07-31T05:16:35;99504.28;;;21.28;47.18
38780;BME280;29273;49.962;9.768;2023-07-31T05:19:00;99508.59;;;21.29;47.57
38780;BME280;29273;49.962;9.768;2023-07-31T05:21:26;99505.63;;;21.30;47.67
38780;BME280;29273;49.962;9.768;2023-07-31T05:23:51;99499.97;;;21.32;47.45
38780;BME280;29273;49.962;9.768;2023-07-31T05:26:16;99499.66;;;21.33;47.14
38780;BME280;29273;49.962;9.768;2023-07-31T05:28:42;99497.50;;;21.35;46.84
38780;BME280;29273;49.962;9.768;2023-07-31T05:31:08;99499.91;;;21.37;47.05
38780;BME280;29273;49.962;9.768;2023-07-31T05:33:33;99497.75;;;21.39;47.44
38780;BME280;29273;49.962;9.768;2023-07-31T05:35:59;99499.06;;;21.41;47.52
38780;BME280;29273;49.962;9.768;2023-07-31T05:38:24;99497.19;;;21.42;47.42
38780;BME280;29273;49.962;9.768;2023-07-31T05:40:50;99504.97;;;21.43;46.98
38780;BME280;29273;49.962;9.768;2023-07-31T05:43:15;99497.41;;;21.46;47.02
38780;BME280;29273;49.962;9.768;2023-07-31T05:45:44;99491.75;;;21.52;47.10
38780;BME280;29273;49.962;9.768;2023-07-31T05:48:09;99492.28;;;21.49;47.32
38780;BME280;29273;49.962;9.768;2023-07-31T05:50:34;99487.44;;;21.51;46.90
38780;BME280;29273;49.962;9.768;2023-07-31T05:53:00;99490.94;;;21.52;46.89
38780;BME280;29273;49.962;9.768;2023-07-31T05:55:25;99483.38;;;21.54;47.05
38780;BME280;29273;49.962;9.768;2023-07-31T05:57:52;99482.00;;;21.56;47.07
38780;BME280;29273;49.962;9.768;2023-07-31T06:00:18;99483.63;;;21.57;46.88
38780;BME280;29273;49.962;9.768;2023-07-31T06:02:44;99483.34;;;21.59;47.41
38780;BME280;29273;49.962;9.768;2023-07-31T06:05:09;99483.34;;;21.59;47.19
38780;BME280;29273;49.962;9.768;2023-07-31T06:07:35;99486.53;;;21.61;47.29
38780;BME280;29273;49.962;9.768;2023-07-31T06:10:01;99491.94;;;21.61;47.21
38780;BME280;29273;49.962;9.768;2023-07-31T06:12:32;99494.28;;;21.68;46.82
38780;BME280;29273;49.962;9.768;2023-07-31T06:14:58;99488.69;;;21.64;47.18
38780;BME280;29273;49.962;9.768;2023-07-31T06:17:24;99482.22;;;21.65;47.07
38780;BME280;29273;49.962;9.768;2023-07-31T06:19:49;99491.88;;;21.66;46.84
38780;BME280;29273;49.962;9.768;2023-07-31T06:22:15;99481.94;;;21.67;46.64
38780;BME280;29273;49.962;9.768;2023-07-31T06:24:41;99490.81;;;21.67;46.82
38780;BME280;29273;49.962;9.768;2023-07-31T06:27:06;99499.97;;;21.66;47.19
38780;BME280;29273;49.962;9.768;2023-07-31T06:29:32;99501.59;;;21.67;47.06
38780;BME280;29273;49.962;9.768;2023-07-31T06:31:58;99498.09;;;21.67;46.78
38780;BME280;29273;49.962;9.768;2023-07-31T06:34:24;99496.47;;;21.66;46.98
38780;BME280;29273;49.962;9.768;2023-07-31T06:36:49;99496.47;;;21.66;47.08
38780;BME280;29273;49.962;9.768;2023-07-31T06:39:15;99503.75;;;21.65;47.11
38780;BME280;29273;49.962;9.768;2023-07-31T06:41:41;99504.28;;;21.67;47.16
38780;BME280;29273;49.962;9.768;2023-07-31T06:44:10;99512.09;;;21.69;46.97
38780;BME280;29273;49.962;9.768;2023-07-31T06:46:36;99502.63;;;21.71;47.21
38780;BME280;29273;49.962;9.768;2023-07-31T06:49:01;99500.75;;;21.72;47.26
38780;BME280;29273;49.962;9.768;2023-07-31T06:51:27;99507.97;;;21.76;47.03
38780;BME280;29273;49.962;9.768;2023-07-31T06:53:52;99501.22;;;21.79;47.09
38780;BME280;29273;49.962;9.768;2023-07-31T06:56:18;99497.44;;;21.80;47.01
38780;BME280;29273;49.962;9.768;2023-07-31T06:58:43;99483.97;;;21.80;46.63
38780;BME280;29273;49.962;9.768;2023-07-31T07:01:09;99484.47;;;21.82;47.00
38780;BME280;29273;49.962;9.768;2023-07-31T07:03:34;99493.88;;;21.85;46.66
38780;BME280;29273;49.962;9.768;2023-07-31T07:06:00;99488.19;;;21.86;47.13
38780;BME280;29273;49.962;9.768;2023-07-31T07:08:25;99484.16;;;21.89;47.31
38780;BME280;29273;49.962;9.768;2023-07-31T07:10:51;99483.28;;;21.93;47.26
38780;BME280;29273;49.962;9.768;2023-07-31T07:13:16;99476.22;;;21.97;46.99
38780;BME280;29273;49.962;9.768;2023-07-31T07:15:47;99483.13;;;22.09;46.97
38780;BME280;29273;49.962;9.768;2023-07-31T07:18:13;99482.63;;;22.07;46.81
38780;BME280;29273;49.962;9.768;2023-07-31T07:20:39;99480.66;;;22.12;47.09
38780;BME280;29273;49.962;9.768;2023-07-31T07:23:05;99490.09;;;22.15;46.62
38780;BME280;29273;49.962;9.768;2023-07-31T07:25:30;99477.91;;;22.17;46.33
38780;BME280;29273;49.962;9.768;2023-07-31T07:27:56;99472.75;;;22.21;46.34
38780;BME280;29273;49.962;9.768;2023-07-31T07:30:21;99482.16;;;22.24;46.75
38780;BME280;29273;49.962;9.768;2023-07-31T07:32:47;99483.19;;;22.28;46.64
38780;BME280;29273;49.962;9.768;2023-07-31T07:35:12;99475.06;;;22.33;46.63
38780;BME280;29273;49.962;9.768;2023-07-31T07:37:38;99464.81;;;22.35;45.82
38780;BME280;29273;49.962;9.768;2023-07-31T07:40:03;99465.03;;;22.39;45.91
38780;BME280;29273;49.962;9.768;2023-07-31T07:42:29;99464.44;;;22.42;46.00
38780;BME280;29273;49.962;9.768;2023-07-31T07:44:54;99468.75;;;22.43;45.95
38780;BME280;29273;49.962;9.768;2023-07-31T07:47:20;99464.38;;;22.47;45.65
38780;BME280;29273;49.962;9.768;2023-07-31T07:49:45;99452.19;;;22.49;45.88
38780;BME280;29273;49.962;9.768;2023-07-31T07:52:11;99446.72;;;22.54;45.60
38780;BME280;29273;49.962;9.768;2023-07-31T07:54:36;99457.25;;;22.56;45.50
38780;BME280;29273;49.962;9.768;2023-07-31T07:57:02;99446.66;;;22.60;45.35
38780;BME280;29273;49.962;9.768;2023-07-31T07:59:28;99458.50;;;22.64;45.36
38780;BME280;29273;49.962;9.768;2023-07-31T08:01:53;99447.72;;;22.64;45.28
38780;BME280;29273;49.962;9.768;2023-07-31T08:04:19;99449.53;;;22.68;45.32
38780;BME280;29273;49.962;9.768;2023-07-31T08:06:44;99459.22;;;22.69;45.65
38780;BME280;29273;49.962;9.768;2023-07-31T08:09:10;99451.63;;;22.71;45.67
38780;BME280;29273;49.962;9.768;2023-07-31T08:11:35;99455.94;;;22.72;45.38
38780;BME280;29273;49.962;9.768;2023-07-31T08:14:01;99452.66;;;22.76;45.37
38780;BME280;29273;49.962;9.768;2023-07-31T08:16:26;99455.88;;;22.78;45.48
38780;BME280;29273;49.962;9.768;2023-07-31T08:18:52;99454.78;;;22.79;45.85
38780;BME280;29273;49.962;9.768;2023-07-31T08:21:17;99449.91;;;22.81;45.32
38780;BME280;29273;49.962;9.768;2023-07-31T08:23:43;99445.00;;;22.83;45.24
38780;BME280;29273;49.962;9.768;2023-07-31T08:26:17;99441.34;;;22.92;45.36
38780;BME280;29273;49.962;9.768;2023-07-31T08:28:43;99438.72;;;22.87;45.23
38780;BME280;29273;49.962;9.768;2023-07-31T08:31:09;99438.44;;;22.89;45.11
38780;BME280;29273;49.962;9.768;2023-07-31T08:33:34;99433.25;;;22.92;45.28
38780;BME280;29273;49.962;9.768;2023-07-31T08:35:59;99440.78;;;22.96;45.53
38780;BME280;29273;49.962;9.768;2023-07-31T08:38:26;99435.00;;;23.02;45.16
38780;BME280;29273;49.962;9.768;2023-07-31T08:40:51;99433.88;;;23.08;45.06
38780;BME280;29273;49.962;9.768;2023-07-31T08:43:18;99431.28;;;23.17;45.21
38780;BME280;29273;49.962;9.768;2023-07-31T08:45:44;99423.19;;;23.17;45.08
38780;BME280;29273;49.962;9.768;2023-07-31T08:48:11;99429.31;;;23.23;44.58
38780;BME280;29273;49.962;9.768;2023-07-31T08:50:37;99425.22;;;23.25;44.92
38780;BME280;29273;49.962;9.768;2023-07-31T08:53:04;99427.34;;;23.28;45.10
38780;BME280;29273;49.962;9.768;2023-07-31T08:55:30;99425.94;;;23.31;44.83
38780;BME280;29273;49.962;9.768;2023-07-31T08:57:57;99425.34;;;23.34;44.58
38780;BME280;29273;49.962;9.768;2023-07-31T09:00:22;99424.25;;;23.35;44.76
38780;BME280;29273;49.962;9.768;2023-07-31T09:02:59;99421.16;;;23.42;44.73
38780;BME280;29273;49.962;9.768;2023-07-31T09:05:26;99425.84;;;23.36;44.54
38780;BME280;29273;49.962;9.768;2023-07-31T09:07:53;99417.16;;;23.39;44.37
38780;BME280;29273;49.962;9.768;2023-07-31T09:10:20;99413.66;;;23.39;44.84
38780;BME280;29273;49.962;9.768;2023-07-31T09:12:46;99416.34;;;23.39;44.67
38780;BME280;29273;49.962;9.768;2023-07-31T09:15:11;99413.06;;;23.42;44.90
38780;BME280;29273;49.962;9.768;2023-07-31T09:17:37;99400.06;;;23.44;44.57
38780;BME280;29273;49.962;9.768;2023-07-31T09:20:21;99402.06;;;23.52;44.65
38780;BME280;29273;49.962;9.768;2023-07-31T09:22:48;99399.56;;;23.56;44.45
38780;BME280;29273;49.962;9.768;2023-07-31T09:27:46;99388.28;;;23.68;44.83
38780;BME280;29273;49.962;9.768;2023-07-31T09:30:13;99380.75;;;23.64;44.21
38780;BME280;29273;49.962;9.768;2023-07-31T09:32:38;99389.28;;;23.72;43.52
38780;BME280;29273;49.962;9.768;2023-07-31T09:35:20;99379.47;;;23.76;43.09
38780;BME280;29273;49.962;9.768;2023-07-31T09:37:50;99382.59;;;23.83;44.26
38780;BME280;29273;49.962;9.768;2023-07-31T09:40:33;99392.31;;;23.84;43.33
38780;BME280;29273;49.962;9.768;2023-07-31T09:43:01;99379.00;;;23.88;43.66
38780;BME280;29273;49.962;9.768;2023-07-31T09:45:27;99368.19;;;23.88;44.33
38780;BME280;29273;49.962;9.768;2023-07-31T09:47:53;99381.09;;;23.91;43.37
38780;BME280;29273;49.962;9.768;2023-07-31T09:50:23;99380.59;;;24.02;44.32
38780;BME280;29273;49.962;9.768;2023-07-31T09:52:50;99389.00;;;24.01;43.30
38780;BME280;29273;49.962;9.768;2023-07-31T09:55:17;99375.97;;;24.03;43.12
38780;BME280;29273;49.962;9.768;2023-07-31T09:57:47;99371.19;;;24.14;44.06
38780;BME280;29273;49.962;9.768;2023-07-31T10:00:16;99373.88;;;24.14;43.09
38780;BME280;29273;49.962;9.768;2023-07-31T10:02:45;99360.25;;;24.19;43.02
38780;BME280;29273;49.962;9.768;2023-07-31T10:05:16;99362.66;;;24.20;43.36
38780;BME280;29273;49.962;9.768;2023-07-31T10:07:43;99360.13;;;24.24;43.09
38780;BME280;29273;49.962;9.768;2023-07-31T10:10:11;99354.41;;;24.26;42.59
38780;BME280;29273;49.962;9.768;2023-07-31T10:12:37;99357.63;;;24.28;41.87
38780;BME280;29273;49.962;9.768;2023-07-31T10:15:03;99360.50;;;24.31;42.54
38780;BME280;29273;49.962;9.768;2023-07-31T10:17:31;99357.72;;;24.36;42.15
38780;BME280;29273;49.962;9.768;2023-07-31T10:20:02;99358.09;;;24.44;42.36
38780;BME280;29273;49.962;9.768;2023-07-31T10:22:31;99354.38;;;24.39;41.93
38780;BME280;29273;49.962;9.768;2023-07-31T10:25:00;99351.25;;;24.46;42.06
38780;BME280;29273;49.962;9.768;2023-07-31T10:27:27;99345.66;;;24.43;41.08
38780;BME280;29273;49.962;9.768;2023-07-31T10:29:54;99356.38;;;24.48;41.09
38780;BME280;29273;49.962;9.768;2023-07-31T10:32:20;99358.09;;;24.44;40.28
38780;BME280;29273;49.962;9.768;2023-07-31T10:34:47;99360.50;;;24.45;40.48
38780;BME280;29273;49.962;9.768;2023-07-31T10:37:40;99351.25;;;24.46;41.53
38780;BME280;29273;49.962;9.768;2023-07-31T10:40:11;99367.06;;;24.53;41.23
38780;BME280;29273;49.962;9.768;2023-07-31T10:42:53;99352.75;;;24.52;41.86
38780;BME280;29273;49.962;9.768;2023-07-31T10:45:39;99346.84;;;24.50;42.38
38780;BME280;29273;49.962;9.768;2023-07-31T10:48:13;99339.69;;;24.54;42.32
38780;BME280;29273;49.962;9.768;2023-07-31T10:50:47;99335.13;;;24.55;42.38
38780;BME280;29273;49.962;9.768;2023-07-31T10:53:30;99331.09;;;24.52;42.38
38780;BME280;29273;49.962;9.768;2023-07-31T10:56:00;99328.09;;;24.54;42.23
38780;BME280;29273;49.962;9.768;2023-07-31T10:58:26;99322.00;;;24.48;41.47
38780;BME280;29273;49.962;9.768;2023-07-31T11:00:56;99325.69;;;24.52;41.89
38780;BME280;29273;49.962;9.768;2023-07-31T11:03:25;99331.09;;;24.52;41.55
38780;BME280;29273;49.962;9.768;2023-07-31T11:06:02;99330.59;;;24.50;41.42
38780;BME280;29273;49.962;9.768;2023-07-31T11:08:30;99334.53;;;24.44;40.78
38780;BME280;29273;49.962;9.768;2023-07-31T11:13:33;99321.47;;;24.46;40.93
38780;BME280;29273;49.962;9.768;2023-07-31T11:16:00;99314.09;;;24.38;40.34
38780;BME280;29273;49.962;9.768;2023-07-31T11:18:26;99306.50;;;24.40;40.54
38780;BME280;29273;49.962;9.768;2023-07-31T11:20:53;99303.47;;;24.42;40.88
38780;BME280;29273;49.962;9.768;2023-07-31T11:23:19;99299.47;;;24.39;40.40
38780;BME280;29273;49.962;9.768;2023-07-31T11:25:45;99308.59;;;24.43;40.25
38780;BME280;29273;49.962;9.768;2023-07-31T11:28:15;99303.53;;;24.50;41.16
38780;BME280;29273;49.962;9.768;2023-07-31T11:30:42;99299.03;;;24.46;39.90
38780;BME280;29273;49.962;9.768;2023-07-31T11:33:09;99313.06;;;24.48;39.81
38780;BME280;29273;49.962;9.768;2023-07-31T11:35:46;99294.53;;;24.55;40.37
38780;BME280;29273;49.962;9.768;2023-07-31T11:38:30;99305.53;;;24.59;40.78
38780;BME280;29273;49.962;9.768;2023-07-31T11:41:00;99296.50;;;24.63;40.42
38780;BME280;29273;49.962;9.768;2023-07-31T11:43:28;99302.72;;;24.64;40.23
38780;BME280;29273;49.962;9.768;2023-07-31T11:45:59;99294.34;;;24.74;39.81
38780;BME280;29273;49.962;9.768;2023-07-31T11:48:35;99296.63;;;24.81;40.22
38780;BME280;29273;49.962;9.768;2023-07-31T11:51:06;99300.63;;;24.83;40.23
38780;BME280;29273;49.962;9.768;2023-07-31T11:56:03;99287.25;;;24.87;39.61
38780;BME280;29273;49.962;9.768;2023-07-31T11:58:32;99277.53;;;24.86;38.53
38780;BME280;29273;49.962;9.768;2023-07-31T12:00:59;99277.53;;;24.86;39.12
38780;BME280;29273;49.962;9.768;2023-07-31T12:03:26;99271.19;;;24.90;39.06
38780;BME280;29273;49.962;9.768;2023-07-31T12:05:53;99280.47;;;24.98;40.13
38780;BME280;29273;49.962;9.768;2023-07-31T12:08:20;99273.00;;;25.04;39.63
38780;BME280;29273;49.962;9.768;2023-07-31T12:10:46;99274.63;;;25.05;39.37
38780;BME280;29273;49.962;9.768;2023-07-31T12:13:20;99269.09;;;25.19;40.18
38780;BME280;29273;49.962;9.768;2023-07-31T12:15:48;99259.53;;;25.21;39.54
38780;BME280;29273;49.962;9.768;2023-07-31T12:18:22;99257.53;;;25.27;40.01
38780;BME280;29273;49.962;9.768;2023-07-31T12:20:49;99258.31;;;25.27;38.99
38780;BME280;29273;49.962;9.768;2023-07-31T12:23:20;99254.38;;;25.34;38.62
38780;BME280;29273;49.962;9.768;2023-07-31T12:26:12;99248.97;;;25.42;39.65
38780;BME280;29273;49.962;9.768;2023-07-31T12:31:21;99244.69;;;25.50;39.44
38780;BME280;29273;49.962;9.768;2023-07-31T12:33:50;99246.28;;;25.51;39.07
38780;BME280;29273;49.962;9.768;2023-07-31T12:36:23;99238.81;;;25.57;39.42
38780;BME280;29273;49.962;9.768;2023-07-31T12:38:50;99233.22;;;25.53;37.85
38780;BME280;29273;49.962;9.768;2023-07-31T12:41:16;99216.13;;;25.53;37.59
38780;BME280;29273;49.962;9.768;2023-07-31T12:43:43;99234.81;;;25.54;37.94
38780;BME280;29273;49.962;9.768;2023-07-31T12:46:09;99226.97;;;25.53;37.38
38780;BME280;29273;49.962;9.768;2023-07-31T12:48:36;99219.66;;;25.53;37.58
38780;BME280;29273;49.962;9.768;2023-07-31T12:51:01;99223.97;;;25.54;37.95
38780;BME280;29273;49.962;9.768;2023-07-31T12:53:28;99212.63;;;25.52;37.45
38780;BME280;29273;49.962;9.768;2023-07-31T12:55:53;99223.47;;;25.52;38.01
38780;BME280;29273;49.962;9.768;2023-07-31T12:58:19;99226.97;;;25.53;37.96
38780;BME280;29273;49.962;9.768;2023-07-31T13:00:44;99226.03;;;25.48;37.91
38780;BME280;29273;49.962;9.768;2023-07-31T13:03:10;99223.31;;;25.48;38.19
38780;BME280;29273;49.962;9.768;2023-07-31T13:05:36;99230.81;;;25.52;39.13
38780;BME280;29273;49.962;9.768;2023-07-31T13:08:01;99223.47;;;25.52;39.26
38780;BME280;29273;49.962;9.768;2023-07-31T13:10:27;99212.63;;;25.52;39.02
38780;BME280;29273;49.962;9.768;2023-07-31T13:12:54;99219.34;;;25.55;38.93
38780;BME280;29273;49.962;9.768;2023-07-31T13:15:19;99212.81;;;25.56;39.70
38780;BME280;29273;49.962;9.768;2023-07-31T13:17:45;99208.81;;;25.53;39.02
38780;BME280;29273;49.962;9.768;2023-07-31T13:20:11;99207.22;;;25.52;38.75